sensor_id;sensor_type;location;lat;lon;timestamp;temperature;humidity
47961;DHT22;33721;48.852;9.936;2024-01-30T00:01:16;0.40;99.90
47961;DHT22;33721;48.852;9.936;2024-01-30T00:03:41;0.40;99.90
47961;DHT22;33721;48.852;9.936;2024-01-30T00:06:08;0.40;99.90
47961;DHT22;33721;48.852;9.936;2024-01-30T00:08:34;0.40;99.90
47961;DHT22;33721;48.852;9.936;2024-01-30T00:11:00;0.50;99.90
47961;DHT22;33721;48.852;9.936;2024-01-30T00:13:26;0.50;99.90
47961;DHT22;33721;48.852;9.936;2024-01-30T00:15:52;0.50;99.90
47961;DHT22;33721;48.852;9.936;2024-01-30T00:18:18;0.50;99.90
47961;DHT22;33721;48.852;9.936;2024-01-30T00:20:44;0.50;99.90
47961;DHT22;33721;48.852;9.936;2024-01-30T00:23:10;0.50;99.90
47961;DHT22;33721;48.852;9.936;2024-01-30T00:25:35;0.40;99.90
47961;DHT22;33721;48.852;9.936;2024-01-30T00:28:01;0.40;99.90
47961;DHT22;33721;48.852;9.936;2024-01-30T00:30:26;0.40;99.90
47961;DHT22;33721;48.852;9.936;2024-01-30T00:32:53;0.30;99.90
47961;DHT22;33721;48.852;9.936;2024-01-30T00:35:18;0.30;99.90
47961;DHT22;33721;48.852;9.936;2024-01-30T00:37:44;0.20;99.90
47961;DHT22;33721;48.852;9.936;2024-01-30T00:40:10;0.20;99.90
47961;DHT22;33721;48.852;9.936;2024-01-30T00:42:43;0.20;99.90
47961;DHT22;33721;48.852;9.936;2024-01-30T00:45:16;0.20;99.90
47961;DHT22;33721;48.852;9.936;2024-01-30T00:47:42;0.10;99.90
47961;DHT22;33721;48.852;9.936;2024-01-30T00:50:08;0.10;99.90
47961;DHT22;33721;48.852;9.936;2024-01-30T00:52:34;0.00;99.90
47961;DHT22;33721;48.852;9.936;2024-01-30T00:55:00;-0.10;99.90
47961;DHT22;33721;48.852;9.936;2024-01-30T00:57:26;-0.10;99.90
47961;DHT22;33721;48.852;9.936;2024-01-30T00:59:52;-0.10;99.90
47961;DHT22;33721;48.852;9.936;2024-01-30T01:02:18;0.00;99.90
47961;DHT22;33721;48.852;9.936;2024-01-30T01:04:44;-0.10;99.90
47961;DHT22;33721;48.852;9.936;2024-01-30T01:07:10;-0.10;99.90
47961;DHT22;33721;48.852;9.936;2024-01-30T01:09:36;-0.20;99.90
47961;DHT22;33721;48.852;9.936;2024-01-30T01:12:03;-0.20;99.90
47961;DHT22;33721;48.852;9.936;2024-01-30T01:14:28;-0.20;99.90
47961;DHT22;33721;48.852;9.936;2024-01-30T01:16:54;-0.20;99.90
47961;DHT22;33721;48.852;9.936;2024-01-30T01:19:19;-0.20;99.90
47961;DHT22;33721;48.852;9.936;2024-01-30T01:21:45;-0.20;99.90
47961;DHT22;33721;48.852;9.936;2024-01-30T01:24:11;-0.10;99.90
47961;DHT22;33721;48.852;9.936;2024-01-30T01:26:36;-0.10;99.90
47961;DHT22;33721;48.852;9.936;2024-01-30T01:29:02;-0.10;99.90
47961;DHT22;33721;48.852;9.936;2024-01-30T01:31:29;-0.10;99.90
47961;DHT22;33721;48.852;9.936;2024-01-30T01:33:55;-0.10;99.90
47961;DHT22;33721;48.852;9.936;2024-01-30T01:36:21;-0.10;99.90
47961;DHT22;33721;48.852;9.936;2024-01-30T01:38:46;0.00;99.90
47961;DHT22;33721;48.852;9.936;2024-01-30T01:41:12;-0.10;99.90
47961;DHT22;33721;48.852;9.936;2024-01-30T01:43:38;-0.20;99.90
47961;DHT22;33721;48.852;9.936;2024-01-30T01:46:05;-0.20;99.90
47961;DHT22;33721;48.852;9.936;2024-01-30T01:48:32;-0.30;99.90
47961;DHT22;33721;48.852;9.936;2024-01-30T01:50:58;-0.40;99.90
47961;DHT22;33721;48.852;9.936;2024-01-30T01:53:24;-0.20;99.90
47961;DHT22;33721;48.852;9.936;2024-01-30T01:55:51;-0.20;99.90
47961;DHT22;33721;48.852;9.936;2024-01-30T01:58:19;-0.20;99.90
47961;DHT22;33721;48.852;9.936;2024-01-30T02:00:46;-0.10;99.90
47961;DHT22;33721;48.852;9.936;2024-01-30T02:03:14;0.00;99.90
47961;DHT22;33721;48.852;9.936;2024-01-30T02:05:42;0.00;99.90
47961;DHT22;33721;48.852;9.936;2024-01-30T02:08:08;0.00;99.90
47961;DHT22;33721;48.852;9.936;2024-01-30T02:10:34;0.00;99.90
47961;DHT22;33721;48.852;9.936;2024-01-30T02:12:59;0.00;99.90
47961;DHT22;33721;48.852;9.936;2024-01-30T02:15:25;-0.10;99.90
47961;DHT22;33721;48.852;9.936;2024-01-30T02:17:51;-0.10;99.90
47961;DHT22;33721;48.852;9.936;2024-01-30T02:20:16;-0.10;99.90
47961;DHT22;33721;48.852;9.936;2024-01-30T02:22:43;-0.10;99.90
47961;DHT22;33721;48.852;9.936;2024-01-30T02:25:08;-0.10;99.90
47961;DHT22;33721;48.852;9.936;2024-01-30T02:27:34;-0.10;99.90
47961;DHT22;33721;48.852;9.936;2024-01-30T02:30:00;-0.20;99.90
47961;DHT22;33721;48.852;9.936;2024-01-30T02:32:25;-0.20;99.90
47961;DHT22;33721;48.852;9.936;2024-01-30T02:34:51;-0.10;99.90
47961;DHT22;33721;48.852;9.936;2024-01-30T02:37:17;-0.10;99.90
47961;DHT22;33721;48.852;9.936;2024-01-30T02:39:42;-0.10;99.90
47961;DHT22;33721;48.852;9.936;2024-01-30T02:42:08;-0.10;99.90
47961;DHT22;33721;48.852;9.936;2024-01-30T02:44:34;-0.30;99.90
47961;DHT22;33721;48.852;9.936;2024-01-30T02:46:59;-0.30;99.90
47961;DHT22;33721;48.852;9.936;2024-01-30T02:49:25;-0.30;99.90
47961;DHT22;33721;48.852;9.936;2024-01-30T02:51:52;-0.30;99.90
47961;DHT22;33721;48.852;9.936;2024-01-30T02:54:18;-0.30;99.90
47961;DHT22;33721;48.852;9.936;2024-01-30T02:56:43;-0.30;99.90
47961;DHT22;33721;48.852;9.936;2024-01-30T02:59:09;-0.30;99.90
47961;DHT22;33721;48.852;9.936;2024-01-30T03:01:42;-0.30;99.90
47961;DHT22;33721;48.852;9.936;2024-01-30T03:04:08;-0.40;99.90
47961;DHT22;33721;48.852;9.936;2024-01-30T03:06:34;-0.40;99.90
47961;DHT22;33721;48.852;9.936;2024-01-30T03:08:59;-0.30;99.90
47961;DHT22;33721;48.852;9.936;2024-01-30T03:11:25;-0.40;99.90
47961;DHT22;33721;48.852;9.936;2024-01-30T03:13:50;-0.30;99.90
47961;DHT22;33721;48.852;9.936;2024-01-30T03:16:17;-0.30;99.90
47961;DHT22;33721;48.852;9.936;2024-01-30T03:18:42;-0.30;99.90
47961;DHT22;33721;48.852;9.936;2024-01-30T03:21:08;-0.30;99.90
47961;DHT22;33721;48.852;9.936;2024-01-30T03:23:33;-0.30;99.90
47961;DHT22;33721;48.852;9.936;2024-01-30T03:25:59;-0.30;99.90
47961;DHT22;33721;48.852;9.936;2024-01-30T03:28:24;-0.30;99.90
47961;DHT22;33721;48.852;9.936;2024-01-30T03:30:50;-0.30;99.90
47961;DHT22;33721;48.852;9.936;2024-01-30T03:33:16;-0.30;99.90
47961;DHT22;33721;48.852;9.936;2024-01-30T03:35:41;-0.20;99.90
47961;DHT22;33721;48.852;9.936;2024-01-30T03:38:07;-0.30;99.90
47961;DHT22;33721;48.852;9.936;2024-01-30T03:40:33;-0.30;99.90
47961;DHT22;33721;48.852;9.936;2024-01-30T03:42:58;-0.30;99.90
47961;DHT22;33721;48.852;9.936;2024-01-30T03:45:24;-0.30;99.90
47961;DHT22;33721;48.852;9.936;2024-01-30T03:47:49;-0.30;99.90
47961;DHT22;33721;48.852;9.936;2024-01-30T03:50:15;-0.30;99.90
47961;DHT22;33721;48.852;9.936;2024-01-30T03:52:40;-0.30;99.90
47961;DHT22;33721;48.852;9.936;2024-01-30T03:55:06;-0.40;99.90
47961;DHT22;33721;48.852;9.936;2024-01-30T03:57:32;-0.40;99.90
47961;DHT22;33721;48.852;9.936;2024-01-30T03:59:58;-0.50;99.90
47961;DHT22;33721;48.852;9.936;2024-01-30T04:02:23;-0.50;99.90
47961;DHT22;33721;48.852;9.936;2024-01-30T04:04:49;-0.50;99.90
47961;DHT22;33721;48.852;9.936;2024-01-30T04:07:14;-0.50;99.90
47961;DHT22;33721;48.852;9.936;2024-01-30T04:09:40;-0.50;99.90
47961;DHT22;33721;48.852;9.936;2024-01-30T04:12:06;-0.50;99.90
47961;DHT22;33721;48.852;9.936;2024-01-30T04:14:31;-0.50;99.90
47961;DHT22;33721;48.852;9.936;2024-01-30T04:16:57;-0.50;99.90
47961;DHT22;33721;48.852;9.936;2024-01-30T04:19:23;-0.60;99.90
47961;DHT22;33721;48.852;9.936;2024-01-30T04:21:48;-0.60;99.90
47961;DHT22;33721;48.852;9.936;2024-01-30T04:24:14;-0.60;99.90
47961;DHT22;33721;48.852;9.936;2024-01-30T04:26:42;-0.60;99.90
47961;DHT22;33721;48.852;9.936;2024-01-30T04:29:08;-0.60;99.90
47961;DHT22;33721;48.852;9.936;2024-01-30T04:31:35;-0.70;99.90
47961;DHT22;33721;48.852;9.936;2024-01-30T04:34:01;-0.70;99.90
47961;DHT22;33721;48.852;9.936;2024-01-30T04:36:26;-0.70;99.90
47961;DHT22;33721;48.852;9.936;2024-01-30T04:38:52;-0.80;99.90
47961;DHT22;33721;48.852;9.936;2024-01-30T04:41:18;-0.80;99.90
47961;DHT22;33721;48.852;9.936;2024-01-30T04:43:43;-0.80;99.90
47961;DHT22;33721;48.852;9.936;2024-01-30T04:46:09;-0.80;99.90
47961;DHT22;33721;48.852;9.936;2024-01-30T04:48:34;-0.70;99.90
47961;DHT22;33721;48.852;9.936;2024-01-30T04:51:00;-0.70;99.90
47961;DHT22;33721;48.852;9.936;2024-01-30T04:53:30;-0.70;99.90
47961;DHT22;33721;48.852;9.936;2024-01-30T04:55:56;-0.70;99.90
47961;DHT22;33721;48.852;9.936;2024-01-30T04:58:21;-0.70;99.90
47961;DHT22;33721;48.852;9.936;2024-01-30T05:00:47;-0.70;99.90
47961;DHT22;33721;48.852;9.936;2024-01-30T05:03:18;-0.70;99.90
47961;DHT22;33721;48.852;9.936;2024-01-30T05:05:43;-0.80;99.90
47961;DHT22;33721;48.852;9.936;2024-01-30T05:08:09;-0.80;99.90
47961;DHT22;33721;48.852;9.936;2024-01-30T05:10:35;-0.90;99.90
47961;DHT22;33721;48.852;9.936;2024-01-30T05:13:00;-0.80;99.90
47961;DHT22;33721;48.852;9.936;2024-01-30T05:15:26;-0.90;99.90
47961;DHT22;33721;48.852;9.936;2024-01-30T05:17:51;-0.80;99.90
47961;DHT22;33721;48.852;9.936;2024-01-30T05:20:17;-0.80;99.90
47961;DHT22;33721;48.852;9.936;2024-01-30T05:22:43;-0.80;99.90
47961;DHT22;33721;48.852;9.936;2024-01-30T05:25:11;-0.80;99.90
47961;DHT22;33721;48.852;9.936;2024-01-30T05:27:37;-0.80;99.90
47961;DHT22;33721;48.852;9.936;2024-01-30T05:30:04;-0.90;99.90
47961;DHT22;33721;48.852;9.936;2024-01-30T05:32:30;-0.90;99.90
47961;DHT22;33721;48.852;9.936;2024-01-30T05:34:55;-0.90;99.90
47961;DHT22;33721;48.852;9.936;2024-01-30T05:37:21;-1.00;99.90
47961;DHT22;33721;48.852;9.936;2024-01-30T05:39:46;-1.00;99.90
47961;DHT22;33721;48.852;9.936;2024-01-30T05:42:12;-0.90;99.90
47961;DHT22;33721;48.852;9.936;2024-01-30T05:44:38;-1.00;99.90
47961;DHT22;33721;48.852;9.936;2024-01-30T05:47:03;-1.00;99.90
47961;DHT22;33721;48.852;9.936;2024-01-30T05:49:29;-1.00;99.90
47961;DHT22;33721;48.852;9.936;2024-01-30T05:51:55;-1.00;99.90
47961;DHT22;33721;48.852;9.936;2024-01-30T05:54:21;-1.00;99.90
47961;DHT22;33721;48.852;9.936;2024-01-30T05:56:46;-1.00;99.90
47961;DHT22;33721;48.852;9.936;2024-01-30T05:59:12;-1.00;99.90
47961;DHT22;33721;48.852;9.936;2024-01-30T06:01:37;-1.00;99.90
47961;DHT22;33721;48.852;9.936;2024-01-30T06:04:03;-0.90;99.90
47961;DHT22;33721;48.852;9.936;2024-01-30T06:06:29;-1.00;99.90
47961;DHT22;33721;48.852;9.936;2024-01-30T06:08:54;-1.00;99.90
47961;DHT22;33721;48.852;9.936;2024-01-30T06:11:21;-1.00;99.90
47961;DHT22;33721;48.852;9.936;2024-01-30T06:13:47;-0.90;99.90
47961;DHT22;33721;48.852;9.936;2024-01-30T06:16:12;-0.90;99.90
47961;DHT22;33721;48.852;9.936;2024-01-30T06:18:38;-0.90;99.90
47961;DHT22;33721;48.852;9.936;2024-01-30T06:21:04;-0.90;99.90
47961;DHT22;33721;48.852;9.936;2024-01-30T06:23:30;-0.90;99.90
47961;DHT22;33721;48.852;9.936;2024-01-30T06:25:56;-0.90;99.90
47961;DHT22;33721;48.852;9.936;2024-01-30T06:28:21;-0.80;99.90
47961;DHT22;33721;48.852;9.936;2024-01-30T06:30:47;-0.80;99.90
47961;DHT22;33721;48.852;9.936;2024-01-30T06:33:13;-0.80;99.90
47961;DHT22;33721;48.852;9.936;2024-01-30T06:35:39;-0.80;99.90
47961;DHT22;33721;48.852;9.936;2024-01-30T06:38:06;-0.80;99.90
47961;DHT22;33721;48.852;9.936;2024-01-30T06:40:31;-0.80;99.90
47961;DHT22;33721;48.852;9.936;2024-01-30T06:42:57;-0.80;99.90
47961;DHT22;33721;48.852;9.936;2024-01-30T06:45:22;-0.80;99.90
47961;DHT22;33721;48.852;9.936;2024-01-30T06:47:48;-0.90;99.90
47961;DHT22;33721;48.852;9.936;2024-01-30T06:50:14;-0.90;99.90
47961;DHT22;33721;48.852;9.936;2024-01-30T06:52:42;-0.90;99.90
47961;DHT22;33721;48.852;9.936;2024-01-30T06:55:09;-0.90;99.90
47961;DHT22;33721;48.852;9.936;2024-01-30T06:57:35;-0.80;99.90
47961;DHT22;33721;48.852;9.936;2024-01-30T07:00:01;-0.70;99.90
47961;DHT22;33721;48.852;9.936;2024-01-30T07:02:26;-0.70;99.90
47961;DHT22;33721;48.852;9.936;2024-01-30T07:04:52;-0.60;99.90
47961;DHT22;33721;48.852;9.936;2024-01-30T07:07:17;-0.60;99.90
47961;DHT22;33721;48.852;9.936;2024-01-30T07:09:43;-0.50;99.90
47961;DHT22;33721;48.852;9.936;2024-01-30T07:12:09;-0.50;99.90
47961;DHT22;33721;48.852;9.936;2024-01-30T07:14:34;-0.50;99.90
47961;DHT22;33721;48.852;9.936;2024-01-30T07:17:01;-0.50;99.90
47961;DHT22;33721;48.852;9.936;2024-01-30T07:19:26;-0.40;99.90
47961;DHT22;33721;48.852;9.936;2024-01-30T07:21:52;-0.30;99.90
47961;DHT22;33721;48.852;9.936;2024-01-30T07:24:18;-0.20;99.90
47961;DHT22;33721;48.852;9.936;2024-01-30T07:26:43;-0.20;99.90
47961;DHT22;33721;48.852;9.936;2024-01-30T07:29:09;-0.20;99.90
47961;DHT22;33721;48.852;9.936;2024-01-30T07:31:34;-0.30;99.90
47961;DHT22;33721;48.852;9.936;2024-01-30T07:34:00;-0.30;99.90
47961;DHT22;33721;48.852;9.936;2024-01-30T07:36:26;-0.20;99.90
47961;DHT22;33721;48.852;9.936;2024-01-30T07:38:51;0.00;99.90
47961;DHT22;33721;48.852;9.936;2024-01-30T07:41:19;0.00;99.90
47961;DHT22;33721;48.852;9.936;2024-01-30T07:43:45;0.20;99.90
47961;DHT22;33721;48.852;9.936;2024-01-30T07:46:10;0.30;99.90
47961;DHT22;33721;48.852;9.936;2024-01-30T07:48:36;0.40;99.90
47961;DHT22;33721;48.852;9.936;2024-01-30T07:51:02;0.40;99.90
47961;DHT22;33721;48.852;9.936;2024-01-30T07:53:29;0.50;99.90
47961;DHT22;33721;48.852;9.936;2024-01-30T07:55:54;0.60;99.90
47961;DHT22;33721;48.852;9.936;2024-01-30T07:58:20;0.60;99.90
47961;DHT22;33721;48.852;9.936;2024-01-30T08:00:46;0.70;99.90
47961;DHT22;33721;48.852;9.936;2024-01-30T08:03:11;0.80;99.90
47961;DHT22;33721;48.852;9.936;2024-01-30T08:05:38;0.90;99.90
47961;DHT22;33721;48.852;9.936;2024-01-30T08:08:04;1.00;99.90
47961;DHT22;33721;48.852;9.936;2024-01-30T08:10:30;1.10;99.90
47961;DHT22;33721;48.852;9.936;2024-01-30T08:12:55;1.20;99.90
47961;DHT22;33721;48.852;9.936;2024-01-30T08:15:21;1.20;99.90
47961;DHT22;33721;48.852;9.936;2024-01-30T08:17:47;1.30;99.90
47961;DHT22;33721;48.852;9.936;2024-01-30T08:20:12;1.30;99.90
47961;DHT22;33721;48.852;9.936;2024-01-30T08:22:39;1.40;99.90
47961;DHT22;33721;48.852;9.936;2024-01-30T08:25:08;1.50;99.90
47961;DHT22;33721;48.852;9.936;2024-01-30T08:27:35;1.60;99.90
47961;DHT22;33721;48.852;9.936;2024-01-30T08:30:03;1.70;99.90
47961;DHT22;33721;48.852;9.936;2024-01-30T08:32:28;1.80;99.90
47961;DHT22;33721;48.852;9.936;2024-01-30T08:34:54;2.00;99.90
47961;DHT22;33721;48.852;9.936;2024-01-30T08:37:20;2.10;99.90
47961;DHT22;33721;48.852;9.936;2024-01-30T08:39:45;2.10;99.90
47961;DHT22;33721;48.852;9.936;2024-01-30T08:42:11;2.10;99.90
47961;DHT22;33721;48.852;9.936;2024-01-30T08:44:37;2.20;99.90
47961;DHT22;33721;48.852;9.936;2024-01-30T08:47:04;2.20;99.90
47961;DHT22;33721;48.852;9.936;2024-01-30T08:49:29;2.20;99.90
47961;DHT22;33721;48.852;9.936;2024-01-30T08:51:55;2.30;99.90
47961;DHT22;33721;48.852;9.936;2024-01-30T08:54:21;2.30;99.90
47961;DHT22;33721;48.852;9.936;2024-01-30T08:56:46;2.30;99.90
47961;DHT22;33721;48.852;9.936;2024-01-30T08:59:12;2.30;99.90
47961;DHT22;33721;48.852;9.936;2024-01-30T09:01:37;2.40;99.90
47961;DHT22;33721;48.852;9.936;2024-01-30T09:04:03;2.50;99.90
47961;DHT22;33721;48.852;9.936;2024-01-30T09:06:29;2.60;99.90
47961;DHT22;33721;48.852;9.936;2024-01-30T09:08:54;2.70;99.90
47961;DHT22;33721;48.852;9.936;2024-01-30T09:11:20;2.80;99.90
47961;DHT22;33721;48.852;9.936;2024-01-30T09:13:46;3.00;99.90
47961;DHT22;33721;48.852;9.936;2024-01-30T09:16:11;3.20;99.90
47961;DHT22;33721;48.852;9.936;2024-01-30T09:18:37;3.40;99.90
47961;DHT22;33721;48.852;9.936;2024-01-30T09:21:03;3.50;99.90
47961;DHT22;33721;48.852;9.936;2024-01-30T09:23:28;3.70;99.90
47961;DHT22;33721;48.852;9.936;2024-01-30T09:25:54;3.80;99.90
47961;DHT22;33721;48.852;9.936;2024-01-30T09:28:20;3.90;99.90
47961;DHT22;33721;48.852;9.936;2024-01-30T09:30:46;4.00;99.90
47961;DHT22;33721;48.852;9.936;2024-01-30T09:33:11;4.20;99.90
47961;DHT22;33721;48.852;9.936;2024-01-30T09:35:37;4.40;99.90
47961;DHT22;33721;48.852;9.936;2024-01-30T09:38:03;4.50;99.90
47961;DHT22;33721;48.852;9.936;2024-01-30T09:40:29;4.70;99.90
47961;DHT22;33721;48.852;9.936;2024-01-30T09:42:55;4.80;99.90
47961;DHT22;33721;48.852;9.936;2024-01-30T09:45:24;5.00;99.90
47961;DHT22;33721;48.852;9.936;2024-01-30T09:47:50;5.20;99.90
47961;DHT22;33721;48.852;9.936;2024-01-30T09:50:16;5.40;99.90
47961;DHT22;33721;48.852;9.936;2024-01-30T09:52:44;5.60;99.90
47961;DHT22;33721;48.852;9.936;2024-01-30T09:55:10;5.70;99.90
47961;DHT22;33721;48.852;9.936;2024-01-30T09:57:36;5.90;99.90
47961;DHT22;33721;48.852;9.936;2024-01-30T10:00:05;6.10;99.90
47961;DHT22;33721;48.852;9.936;2024-01-30T10:02:33;6.30;99.90
47961;DHT22;33721;48.852;9.936;2024-01-30T10:04:59;6.50;99.90
47961;DHT22;33721;48.852;9.936;2024-01-30T10:07:25;6.70;99.90
47961;DHT22;33721;48.852;9.936;2024-01-30T10:09:51;6.90;99.90
47961;DHT22;33721;48.852;9.936;2024-01-30T10:12:18;6.90;99.90
47961;DHT22;33721;48.852;9.936;2024-01-30T10:14:44;7.00;99.90
47961;DHT22;33721;48.852;9.936;2024-01-30T10:17:11;7.10;99.90
47961;DHT22;33721;48.852;9.936;2024-01-30T10:19:40;7.10;99.90
47961;DHT22;33721;48.852;9.936;2024-01-30T10:22:06;7.20;99.90
47961;DHT22;33721;48.852;9.936;2024-01-30T10:24:34;7.20;99.90
47961;DHT22;33721;48.852;9.936;2024-01-30T10:27:00;7.30;99.90
47961;DHT22;33721;48.852;9.936;2024-01-30T10:29:27;7.30;99.90
47961;DHT22;33721;48.852;9.936;2024-01-30T10:34:25;7.70;99.90
47961;DHT22;33721;48.852;9.936;2024-01-30T10:36:59;8.00;99.90
47961;DHT22;33721;48.852;9.936;2024-01-30T10:39:30;8.30;99.90
47961;DHT22;33721;48.852;9.936;2024-01-30T10:42:04;8.70;99.90
47961;DHT22;33721;48.852;9.936;2024-01-30T10:44:56;8.80;99.90
47961;DHT22;33721;48.852;9.936;2024-01-30T10:47:27;8.80;99.90
47961;DHT22;33721;48.852;9.936;2024-01-30T10:49:55;8.80;99.90
47961;DHT22;33721;48.852;9.936;2024-01-30T10:52:23;9.00;99.90
47961;DHT22;33721;48.852;9.936;2024-01-30T10:54:51;9.10;99.90
47961;DHT22;33721;48.852;9.936;2024-01-30T10:57:18;9.20;99.90
47961;DHT22;33721;48.852;9.936;2024-01-30T10:59:45;9.20;99.90
47961;DHT22;33721;48.852;9.936;2024-01-30T11:02:12;9.20;99.90
47961;DHT22;33721;48.852;9.936;2024-01-30T11:04:41;9.20;99.90
47961;DHT22;33721;48.852;9.936;2024-01-30T11:07:16;9.40;99.90
47961;DHT22;33721;48.852;9.936;2024-01-30T11:09:53;9.70;99.90
47961;DHT22;33721;48.852;9.936;2024-01-30T11:12:25;9.90;99.90
47961;DHT22;33721;48.852;9.936;2024-01-30T11:15:05;10.20;99.90
47961;DHT22;33721;48.852;9.936;2024-01-30T11:17:50;10.50;99.90
47961;DHT22;33721;48.852;9.936;2024-01-30T11:20:30;10.80;99.90
47961;DHT22;33721;48.852;9.936;2024-01-30T11:23:01;11.00;99.90
47961;DHT22;33721;48.852;9.936;2024-01-30T11:25:31;11.10;99.90
47961;DHT22;33721;48.852;9.936;2024-01-30T11:27:57;11.00;99.90
47961;DHT22;33721;48.852;9.936;2024-01-30T11:33:01;10.90;99.90
47961;DHT22;33721;48.852;9.936;2024-01-30T11:35:31;10.80;99.90
47961;DHT22;33721;48.852;9.936;2024-01-30T11:37:59;10.70;99.90
47961;DHT22;33721;48.852;9.936;2024-01-30T11:40:27;10.70;99.90
47961;DHT22;33721;48.852;9.936;2024-01-30T11:42:55;10.70;99.90
47961;DHT22;33721;48.852;9.936;2024-01-30T11:45:20;10.80;99.90
47961;DHT22;33721;48.852;9.936;2024-01-30T11:47:46;10.90;99.90
47961;DHT22;33721;48.852;9.936;2024-01-30T11:50:12;11.00;99.90
47961;DHT22;33721;48.852;9.936;2024-01-30T11:52:38;11.00;99.90
47961;DHT22;33721;48.852;9.936;2024-01-30T11:55:04;11.10;99.90
47961;DHT22;33721;48.852;9.936;2024-01-30T11:57:30;11.10;99.90
47961;DHT22;33721;48.852;9.936;2024-01-30T11:59:55;11.10;99.90
47961;DHT22;33721;48.852;9.936;2024-01-30T12:02:21;11.10;99.90
47961;DHT22;33721;48.852;9.936;2024-01-30T12:04:47;11.10;99.90
47961;DHT22;33721;48.852;9.936;2024-01-30T12:07:13;11.20;99.90
47961;DHT22;33721;48.852;9.936;2024-01-30T12:09:41;11.30;99.90
47961;DHT22;33721;48.852;9.936;2024-01-30T12:12:07;11.30;99.90
47961;DHT22;33721;48.852;9.936;2024-01-30T12:14:40;11.30;99.90
47961;DHT22;33721;48.852;9.936;2024-01-30T12:17:06;11.30;99.90
47961;DHT22;33721;48.852;9.936;2024-01-30T12:19:34;11.30;99.90
47961;DHT22;33721;48.852;9.936;2024-01-30T12:21:59;11.30;99.90
47961;DHT22;33721;48.852;9.936;2024-01-30T12:24:28;11.40;99.90
47961;DHT22;33721;48.852;9.936;2024-01-30T12:26:58;11.40;99.90
47961;DHT22;33721;48.852;9.936;2024-01-30T12:29:24;11.50;99.90
47961;DHT22;33721;48.852;9.936;2024-01-30T12:31:53;11.50;99.90
47961;DHT22;33721;48.852;9.936;2024-01-30T12:34:19;11.60;99.90
47961;DHT22;33721;48.852;9.936;2024-01-30T12:36:47;11.80;99.90
47961;DHT22;33721;48.852;9.936;2024-01-30T12:39:13;11.80;99.90
47961;DHT22;33721;48.852;9.936;2024-01-30T12:41:40;11.90;99.90
47961;DHT22;33721;48.852;9.936;2024-01-30T12:44:06;11.90;99.90
47961;DHT22;33721;48.852;9.936;2024-01-30T12:46:34;11.90;99.90
47961;DHT22;33721;48.852;9.936;2024-01-30T12:49:00;11.90;99.90
47961;DHT22;33721;48.852;9.936;2024-01-30T12:51:25;11.80;99.90
47961;DHT22;33721;48.852;9.936;2024-01-30T12:53:51;11.90;99.90
47961;DHT22;33721;48.852;9.936;2024-01-30T12:56:17;11.80;99.90
47961;DHT22;33721;48.852;9.936;2024-01-30T12:58:42;11.90;99.90
47961;DHT22;33721;48.852;9.936;2024-01-30T13:01:08;12.00;99.90
47961;DHT22;33721;48.852;9.936;2024-01-30T13:03:34;12.00;99.90
47961;DHT22;33721;48.852;9.936;2024-01-30T13:06:00;12.10;99.90
47961;DHT22;33721;48.852;9.936;2024-01-30T13:08:26;12.10;99.90
47961;DHT22;33721;48.852;9.936;2024-01-30T13:10:51;12.20;99.90
47961;DHT22;33721;48.852;9.936;2024-01-30T13:13:17;12.20;99.90
47961;DHT22;33721;48.852;9.936;2024-01-30T13:15:43;12.20;99.90
47961;DHT22;33721;48.852;9.936;2024-01-30T13:18:08;12.30;99.90
47961;DHT22;33721;48.852;9.936;2024-01-30T13:20:34;12.20;99.90
47961;DHT22;33721;48.852;9.936;2024-01-30T13:22:59;12.30;99.90
47961;DHT22;33721;48.852;9.936;2024-01-30T13:25:25;12.30;99.90
47961;DHT22;33721;48.852;9.936;2024-01-30T13:27:51;12.40;99.90
47961;DHT22;33721;48.852;9.936;2024-01-30T13:30:17;12.40;99.90
47961;DHT22;33721;48.852;9.936;2024-01-30T13:32:42;12.50;99.90
47961;DHT22;33721;48.852;9.936;2024-01-30T13:35:09;12.60;99.70
47961;DHT22;33721;48.852;9.936;2024-01-30T13:37:35;12.50;99.90
47961;DHT22;33721;48.852;9.936;2024-01-30T13:40:03;12.30;99.70
47961;DHT22;33721;48.852;9.936;2024-01-30T13:42:32;12.20;99.90
47961;DHT22;33721;48.852;9.936;2024-01-30T13:44:57;12.10;99.90
47961;DHT22;33721;48.852;9.936;2024-01-30T13:47:23;12.10;99.90
47961;DHT22;33721;48.852;9.936;2024-01-30T13:49:49;12.20;99.90
47961;DHT22;33721;48.852;9.936;2024-01-30T13:52:14;12.10;99.90
47961;DHT22;33721;48.852;9.936;2024-01-30T13:54:40;12.10;99.90
47961;DHT22;33721;48.852;9.936;2024-01-30T13:57:06;12.00;99.90
47961;DHT22;33721;48.852;9.936;2024-01-30T13:59:33;11.90;99.90
47961;DHT22;33721;48.852;9.936;2024-01-30T14:01:58;11.80;99.90
47961;DHT22;33721;48.852;9.936;2024-01-30T14:04:24;11.70;99.90
47961;DHT22;33721;48.852;9.936;2024-01-30T14:06:50;11.70;99.90
47961;DHT22;33721;48.852;9.936;2024-01-30T14:09:15;11.60;99.90
47961;DHT22;33721;48.852;9.936;2024-01-30T14:11:41;11.50;99.90
47961;DHT22;33721;48.852;9.936;2024-01-30T14:14:08;11.50;99.90
47961;DHT22;33721;48.852;9.936;2024-01-30T14:16:34;11.50;99.90
47961;DHT22;33721;48.852;9.936;2024-01-30T14:18:59;11.50;99.90
47961;DHT22;33721;48.852;9.936;2024-01-30T14:21:25;11.50;99.90
47961;DHT22;33721;48.852;9.936;2024-01-30T14:23:51;11.60;99.90
47961;DHT22;33721;48.852;9.936;2024-01-30T14:26:16;11.60;99.90
47961;DHT22;33721;48.852;9.936;2024-01-30T14:28:42;11.50;99.90
47961;DHT22;33721;48.852;9.936;2024-01-30T14:31:09;11.40;99.90
47961;DHT22;33721;48.852;9.936;2024-01-30T14:33:34;11.40;99.90
47961;DHT22;33721;48.852;9.936;2024-01-30T14:36:00;11.30;99.90
47961;DHT22;33721;48.852;9.936;2024-01-30T14:38:25;11.40;99.90
47961;DHT22;33721;48.852;9.936;2024-01-30T14:40:51;11.40;99.90
47961;DHT22;33721;48.852;9.936;2024-01-30T14:43:17;11.30;99.90
47961;DHT22;33721;48.852;9.936;2024-01-30T14:45:43;11.30;99.90
47961;DHT22;33721;48.852;9.936;2024-01-30T14:48:11;11.20;99.90
47961;DHT22;33721;48.852;9.936;2024-01-30T14:50:37;11.20;99.90
47961;DHT22;33721;48.852;9.936;2024-01-30T14:53:03;11.10;99.90
47961;DHT22;33721;48.852;9.936;2024-01-30T14:55:28;11.00;99.90
47961;DHT22;33721;48.852;9.936;2024-01-30T14:57:54;11.00;99.90
47961;DHT22;33721;48.852;9.936;2024-01-30T15:00:20;11.00;99.90
47961;DHT22;33721;48.852;9.936;2024-01-30T15:02:46;10.90;99.90
47961;DHT22;33721;48.852;9.936;2024-01-30T15:05:12;10.90;99.90
47961;DHT22;33721;48.852;9.936;2024-01-30T15:07:38;10.80;99.90
47961;DHT22;33721;48.852;9.936;2024-01-30T15:10:04;10.80;99.90
47961;DHT22;33721;48.852;9.936;2024-01-30T15:12:30;10.80;99.90
47961;DHT22;33721;48.852;9.936;2024-01-30T15:14:55;10.70;99.90
47961;DHT22;33721;48.852;9.936;2024-01-30T15:17:21;10.70;99.90
47961;DHT22;33721;48.852;9.936;2024-01-30T15:19:47;10.60;99.90
47961;DHT22;33721;48.852;9.936;2024-01-30T15:22:13;10.60;99.90
47961;DHT22;33721;48.852;9.936;2024-01-30T15:24:38;10.50;99.90
47961;DHT22;33721;48.852;9.936;2024-01-30T15:27:04;10.40;99.90
47961;DHT22;33721;48.852;9.936;2024-01-30T15:29:30;10.40;99.90
47961;DHT22;33721;48.852;9.936;2024-01-30T15:31:55;10.30;99.90
47961;DHT22;33721;48.852;9.936;2024-01-30T15:34:21;10.20;99.90